Aviation Digital Data Service (ADDS)

Output produced by METARs form (0759 UTC 01 April 2015)
found at http://aviationweather.gov/adds/metars/
 
KPSM 010520Z 0106/0206 33005KT P6SM SKC 
     FM011300 32012G19KT P6SM SKC 
     FM020000 30005KT P6SM SKC